createdAt,value
2017-10-06T00:00:03.403Z,5.10
2017-10-06T00:02:30.864Z,5.60
2017-10-06T00:04:58.379Z,5.18
2017-10-06T00:07:26.608Z,4.82
2017-10-06T00:09:54.292Z,5.43
2017-10-06T00:12:22.459Z,4.43
2017-10-06T00:14:49.932Z,4.55
2017-10-06T00:17:17.396Z,4.37
2017-10-06T00:19:44.896Z,5.28
2017-10-06T00:22:12.364Z,4.97
2017-10-06T00:24:39.856Z,4.45
2017-10-06T00:27:07.329Z,4.85
2017-10-06T00:29:34.822Z,4.57
2017-10-06T00:32:02.293Z,3.95
2017-10-06T00:34:29.811Z,4.28
2017-10-06T00:36:58.090Z,3.70
2017-10-06T00:39:26.341Z,3.95
2017-10-06T00:41:53.841Z,4.22
2017-10-06T00:44:21.329Z,3.40
2017-10-06T00:46:48.792Z,4.82
2017-10-06T00:49:16.321Z,4.28
2017-10-06T00:51:43.809Z,3.87
2017-10-06T00:54:11.337Z,4.15
2017-10-06T00:56:38.830Z,3.75
2017-10-06T00:59:06.288Z,4.60
2017-10-06T01:01:33.793Z,4.43
2017-10-06T01:04:02.041Z,4.87
2017-10-06T01:06:29.551Z,4.80
2017-10-06T01:08:57.037Z,3.67
2017-10-06T01:11:24.539Z,4.70
2017-10-06T01:13:52.020Z,4.00
2017-10-06T01:16:19.505Z,4.40
2017-10-06T01:18:47.004Z,4.12
2017-10-06T01:21:15.989Z,3.85
2017-10-06T01:23:43.490Z,3.62
2017-10-06T01:26:11.727Z,3.78
2017-10-06T01:28:39.188Z,3.85
2017-10-06T01:31:06.688Z,4.75
2017-10-06T01:33:34.162Z,5.00
2017-10-06T01:36:01.669Z,5.18
2017-10-06T01:38:29.145Z,4.10
2017-10-06T01:40:57.412Z,3.83
2017-10-06T01:43:24.911Z,3.30
2017-10-06T01:45:52.380Z,3.80
2017-10-06T01:48:19.865Z,3.85
2017-10-06T01:50:48.868Z,3.90
2017-10-06T01:53:16.361Z,4.07
2017-10-06T01:55:43.848Z,4.05
2017-10-06T01:58:11.312Z,3.45
2017-10-06T02:00:38.809Z,3.55
2017-10-06T02:03:06.301Z,4.10
2017-10-06T02:05:33.801Z,3.65
2017-10-06T02:08:01.293Z,3.30
2017-10-06T02:10:29.564Z,3.62
2017-10-06T02:12:57.041Z,3.58
2017-10-06T02:15:25.291Z,3.58
2017-10-06T02:17:52.788Z,3.65
2017-10-06T02:20:21.107Z,3.60
2017-10-06T02:22:48.607Z,3.65
2017-10-06T02:25:16.868Z,3.85
2017-10-06T02:27:44.375Z,3.30
2017-10-06T02:30:11.870Z,2.58
2017-10-06T02:32:39.363Z,3.37
2017-10-06T02:35:07.614Z,2.92
2017-10-06T02:37:35.093Z,3.65
2017-10-06T02:40:03.376Z,2.97
2017-10-06T02:42:31.607Z,2.87
2017-10-06T02:44:59.100Z,2.55
2017-10-06T02:47:27.367Z,3.47
2017-10-06T02:49:54.869Z,2.83
2017-10-06T02:52:22.351Z,3.00
2017-10-06T02:54:49.864Z,2.92
2017-10-06T02:57:18.113Z,3.60
2017-10-06T02:59:45.592Z,3.37
2017-10-06T03:02:13.896Z,3.45
2017-10-06T03:04:41.385Z,4.30
2017-10-06T03:07:08.856Z,3.37
2017-10-06T03:09:36.360Z,3.53
2017-10-06T03:12:04.598Z,2.80
2017-10-06T03:14:32.091Z,3.42
2017-10-06T03:17:00.321Z,2.70
2017-10-06T03:19:27.812Z,3.60
2017-10-06T03:21:56.064Z,3.25
2017-10-06T03:24:23.559Z,3.45
2017-10-06T03:26:51.841Z,3.92
2017-10-06T03:29:20.090Z,3.70
2017-10-06T03:31:47.671Z,3.58
2017-10-06T03:34:15.951Z,2.87
2017-10-06T03:36:44.208Z,2.78
2017-10-06T03:39:11.714Z,2.62
2017-10-06T03:41:39.179Z,3.50
2017-10-06T03:44:06.667Z,3.15
2017-10-06T03:46:34.173Z,3.22
2017-10-06T03:49:01.641Z,1.90
2017-10-06T03:51:29.140Z,3.47
2017-10-06T03:53:56.600Z,2.90
2017-10-06T03:56:24.111Z,2.97
2017-10-06T03:58:51.587Z,3.25
2017-10-06T04:01:19.068Z,3.72
2017-10-06T04:03:46.568Z,2.62
2017-10-06T04:06:14.810Z,3.22
2017-10-06T04:08:42.275Z,2.95
2017-10-06T04:11:09.757Z,2.50
2017-10-06T04:13:37.997Z,2.62
2017-10-06T04:16:05.504Z,2.72
2017-10-06T04:18:33.743Z,3.12
2017-10-06T04:21:01.220Z,4.10
2017-10-06T04:23:28.719Z,3.90
2017-10-06T04:25:56.188Z,1.85
2017-10-06T04:28:23.684Z,2.28
2017-10-06T04:30:51.168Z,3.35
2017-10-06T04:33:19.444Z,2.87
2017-10-06T04:35:47.700Z,2.83
2017-10-06T04:38:15.167Z,2.55
2017-10-06T04:40:42.665Z,3.20
2017-10-06T04:43:10.136Z,2.95
2017-10-06T04:45:37.644Z,3.00
2017-10-06T04:48:05.881Z,2.33
2017-10-06T04:50:33.347Z,2.40
2017-10-06T04:53:00.853Z,3.08
2017-10-06T04:55:29.082Z,3.90
2017-10-06T04:57:56.586Z,3.03
2017-10-06T05:00:24.816Z,3.58
2017-10-06T05:02:52.314Z,3.37
2017-10-06T05:05:20.588Z,3.37
2017-10-06T05:07:48.816Z,2.92
2017-10-06T05:10:16.339Z,3.72
2017-10-06T05:12:44.577Z,4.10
2017-10-06T05:15:12.143Z,5.37
2017-10-06T05:17:39.640Z,6.95
2017-10-06T05:20:07.125Z,4.22
2017-10-06T05:22:34.604Z,4.75
2017-10-06T05:25:02.101Z,3.55
2017-10-06T05:27:30.371Z,2.83
2017-10-06T05:29:58.633Z,3.55
2017-10-06T05:32:27.671Z,3.90
2017-10-06T05:34:55.140Z,3.03
2017-10-06T05:37:22.654Z,4.55
2017-10-06T05:39:50.888Z,3.70
2017-10-06T05:42:18.348Z,4.07
2017-10-06T05:44:45.864Z,4.03
2017-10-06T05:47:13.369Z,4.85
2017-10-06T05:49:40.893Z,5.90
2017-10-06T05:52:08.369Z,4.90
2017-10-06T05:54:35.855Z,5.55
2017-10-06T05:57:03.370Z,5.43
2017-10-06T05:59:30.849Z,5.20
2017-10-06T06:01:58.379Z,5.65
2017-10-06T06:04:26.631Z,4.32
2017-10-06T06:06:54.125Z,4.90
2017-10-06T06:09:21.596Z,5.35
2017-10-06T06:11:49.080Z,4.75
2017-10-06T06:14:16.584Z,4.80
2017-10-06T06:16:44.831Z,5.35
2017-10-06T06:19:12.350Z,6.53
2017-10-06T06:21:39.886Z,3.78
2017-10-06T06:24:08.149Z,4.75
2017-10-06T06:26:36.418Z,4.12
2017-10-06T06:29:03.884Z,4.12
2017-10-06T06:31:32.152Z,4.00
2017-10-06T06:33:59.624Z,5.53
2017-10-06T06:36:27.906Z,4.37
2017-10-06T06:38:56.147Z,4.05
2017-10-06T06:41:23.679Z,4.97
2017-10-06T06:43:51.149Z,4.90
2017-10-06T06:46:18.633Z,4.32
2017-10-06T06:48:46.126Z,4.60
2017-10-06T06:51:13.604Z,4.80
2017-10-06T06:53:41.189Z,4.47
2017-10-06T06:56:08.691Z,3.97
2017-10-06T06:58:36.972Z,4.45
2017-10-06T07:01:05.241Z,4.50
2017-10-06T07:03:33.501Z,4.57
2017-10-06T07:06:01.006Z,4.45
2017-10-06T07:08:28.489Z,4.28
2017-10-06T07:10:55.992Z,4.10
2017-10-06T07:13:24.220Z,5.97
2017-10-06T07:15:52.451Z,4.57
2017-10-06T07:18:19.968Z,4.18
2017-10-06T07:20:47.453Z,4.10
2017-10-06T07:23:14.932Z,4.22
2017-10-06T07:25:42.461Z,4.65
2017-10-06T07:28:09.957Z,4.18
2017-10-06T07:30:37.420Z,3.80
2017-10-06T07:33:04.932Z,3.80
2017-10-06T07:35:32.428Z,4.03
2017-10-06T07:38:00.724Z,3.83
2017-10-06T07:40:28.219Z,3.87
2017-10-06T07:42:55.713Z,3.67
2017-10-06T07:45:24.326Z,3.05
2017-10-06T07:47:51.829Z,4.70
2017-10-06T07:50:26.237Z,3.58
2017-10-06T07:52:53.811Z,4.00
2017-10-06T07:55:21.349Z,3.67
2017-10-06T07:57:48.855Z,4.25
2017-10-06T08:00:18.005Z,3.62
2017-10-06T08:02:45.481Z,3.58
2017-10-06T08:05:12.992Z,3.75
2017-10-06T08:07:42.388Z,3.80
2017-10-06T08:10:10.701Z,3.95
2017-10-06T08:12:38.171Z,4.37
2017-10-06T08:15:05.650Z,3.85
2017-10-06T08:17:33.150Z,4.30
2017-10-06T08:20:00.669Z,3.80
2017-10-06T08:22:28.184Z,3.97
2017-10-06T08:24:55.677Z,4.00
2017-10-06T08:27:23.184Z,4.25
2017-10-06T08:29:50.681Z,4.20
2017-10-06T08:32:18.196Z,3.85
2017-10-06T08:34:45.717Z,5.93
2017-10-06T08:37:14.718Z,5.10
2017-10-06T08:39:44.535Z,4.85
2017-10-06T08:42:12.799Z,5.55
2017-10-06T08:44:40.309Z,4.97
2017-10-06T08:47:08.005Z,4.70
2017-10-06T08:49:36.220Z,4.55
2017-10-06T08:52:04.878Z,4.57
2017-10-06T08:54:32.371Z,4.25
2017-10-06T08:57:00.641Z,3.72
2017-10-06T08:59:28.905Z,3.92
2017-10-06T09:01:56.399Z,3.87
2017-10-06T09:04:23.882Z,3.83
2017-10-06T09:06:51.368Z,4.10
2017-10-06T09:09:19.109Z,3.47
2017-10-06T09:11:46.624Z,3.50
2017-10-06T09:14:15.817Z,2.95
2017-10-06T09:16:44.435Z,3.45
2017-10-06T09:19:11.937Z,2.92
2017-10-06T09:21:39.426Z,3.70
2017-10-06T09:24:07.681Z,3.28
2017-10-06T09:26:35.201Z,3.12
2017-10-06T09:29:02.700Z,2.75
2017-10-06T09:31:30.211Z,2.00
2017-10-06T09:33:57.700Z,2.60
2017-10-06T09:36:25.453Z,3.15
2017-10-06T09:38:52.958Z,3.35
2017-10-06T09:41:21.257Z,2.92
2017-10-06T09:43:49.032Z,2.80
2017-10-06T09:46:16.596Z,2.20
2017-10-06T09:48:44.087Z,3.33
2017-10-06T09:51:11.587Z,2.40
2017-10-06T09:53:39.091Z,2.62
2017-10-06T09:56:06.936Z,2.72
2017-10-06T09:58:34.422Z,2.10
2017-10-06T10:01:04.360Z,2.10
2017-10-06T10:03:31.853Z,1.98
2017-10-06T10:05:59.373Z,2.22
2017-10-06T10:08:27.633Z,2.40
2017-10-06T10:10:55.699Z,2.20
2017-10-06T10:13:23.193Z,2.17
2017-10-06T10:15:51.474Z,2.10
2017-10-06T10:18:19.741Z,2.05
2017-10-06T10:20:47.971Z,2.15
2017-10-06T10:23:15.499Z,2.20
2017-10-06T10:25:43.760Z,1.90
2017-10-06T10:28:11.273Z,2.90
2017-10-06T10:30:38.749Z,2.05
2017-10-06T10:33:06.584Z,2.33
2017-10-06T10:35:34.079Z,2.40
2017-10-06T10:38:01.564Z,1.87
2017-10-06T10:40:29.843Z,2.47
2017-10-06T10:42:58.088Z,2.25
2017-10-06T10:45:25.604Z,2.15
2017-10-06T10:47:53.101Z,2.17
2017-10-06T10:50:20.612Z,2.20
2017-10-06T10:52:48.117Z,2.10
2017-10-06T10:55:15.622Z,1.95
2017-10-06T10:57:43.933Z,3.75
2017-10-06T11:00:11.410Z,2.87
2017-10-06T11:02:38.930Z,2.78
2017-10-06T11:05:06.437Z,2.55
2017-10-06T11:07:33.956Z,3.00
2017-10-06T11:10:01.434Z,2.58
2017-10-06T11:12:28.937Z,2.17
2017-10-06T11:14:57.222Z,2.20
2017-10-06T11:17:25.473Z,2.20
2017-10-06T11:19:53.013Z,2.60
2017-10-06T11:22:20.492Z,1.90
2017-10-06T11:24:47.995Z,2.85
2017-10-06T11:27:15.475Z,2.80
2017-10-06T11:29:42.987Z,2.42
2017-10-06T11:32:10.469Z,2.42
2017-10-06T11:34:37.969Z,2.75
2017-10-06T11:37:05.469Z,2.60
2017-10-06T11:39:33.732Z,2.72
2017-10-06T11:42:01.247Z,1.90
2017-10-06T11:44:28.738Z,2.08
2017-10-06T11:46:56.256Z,2.78
2017-10-06T11:49:23.789Z,1.90
2017-10-06T11:51:52.072Z,2.05
2017-10-06T11:54:25.352Z,1.98
2017-10-06T11:56:53.641Z,1.98
2017-10-06T11:59:21.892Z,1.95
2017-10-06T12:01:49.398Z,1.30
2017-10-06T12:04:16.917Z,1.70
2017-10-06T12:06:44.388Z,2.03
2017-10-06T12:09:12.620Z,1.50
2017-10-06T12:11:40.124Z,1.70
2017-10-06T12:14:08.394Z,1.67
2017-10-06T12:16:36.695Z,1.70
2017-10-06T12:19:04.170Z,1.30
2017-10-06T12:21:31.662Z,1.80
2017-10-06T12:23:59.136Z,1.98
2017-10-06T12:26:26.671Z,2.37
2017-10-06T12:28:54.168Z,2.10
2017-10-06T12:31:22.428Z,2.10
2017-10-06T12:33:49.931Z,2.05
2017-10-06T12:36:17.394Z,3.65
2017-10-06T12:38:44.902Z,5.78
2017-10-06T12:41:12.398Z,1.90
2017-10-06T12:43:40.785Z,1.62
2017-10-06T12:46:08.276Z,4.00
2017-10-06T12:48:35.768Z,1.60
2017-10-06T12:51:03.259Z,1.30
2017-10-06T12:53:30.751Z,1.75
2017-10-06T12:55:58.272Z,1.73
2017-10-06T12:58:26.512Z,1.65
2017-10-06T13:00:54.056Z,1.75
2017-10-06T13:03:21.560Z,1.40
2017-10-06T13:05:49.820Z,2.05
2017-10-06T13:08:17.273Z,2.15
2017-10-06T13:10:44.795Z,2.10
2017-10-06T13:13:12.270Z,1.70
2017-10-06T13:15:39.736Z,2.70
2017-10-06T13:18:07.249Z,2.03
2017-10-06T13:20:34.716Z,2.15
2017-10-06T13:23:02.249Z,2.15
2017-10-06T13:25:30.475Z,1.90
2017-10-06T13:27:57.990Z,2.70
2017-10-06T13:30:25.715Z,2.40
2017-10-06T13:32:53.219Z,1.85
2017-10-06T13:35:20.716Z,2.85
2017-10-06T13:37:48.208Z,3.25
2017-10-06T13:40:15.685Z,2.50
2017-10-06T13:42:43.181Z,2.97
2017-10-06T13:45:10.688Z,2.60
2017-10-06T13:47:38.953Z,3.00
2017-10-06T13:50:06.409Z,2.78
2017-10-06T13:52:33.919Z,2.47
2017-10-06T13:55:01.391Z,2.90
2017-10-06T13:57:28.951Z,3.10
2017-10-06T13:59:56.421Z,2.95
2017-10-06T14:02:23.900Z,3.00
2017-10-06T14:04:52.168Z,2.85
2017-10-06T14:07:19.637Z,2.17
2017-10-06T14:09:47.176Z,2.70
2017-10-06T14:12:14.657Z,2.05
2017-10-06T14:14:42.912Z,2.70
2017-10-06T14:17:10.424Z,2.15
2017-10-06T14:19:38.692Z,1.40
2017-10-06T14:22:06.940Z,1.90
2017-10-06T14:24:34.419Z,1.83
2017-10-06T14:27:02.688Z,2.12
2017-10-06T14:29:31.664Z,2.08
2017-10-06T14:31:59.365Z,1.75
2017-10-06T14:34:26.881Z,1.85
2017-10-06T14:36:54.378Z,1.90
2017-10-06T14:39:22.630Z,1.98
2017-10-06T14:41:50.902Z,2.20
2017-10-06T14:44:18.393Z,2.17
2017-10-06T14:46:45.921Z,2.12
2017-10-06T14:49:13.426Z,2.08
2017-10-06T14:51:40.957Z,1.75
2017-10-06T14:54:09.272Z,1.92
2017-10-06T14:56:36.774Z,2.10
2017-10-06T14:59:04.253Z,2.00
2017-10-06T15:01:32.990Z,1.83
2017-10-06T15:04:00.455Z,2.00
2017-10-06T15:06:27.949Z,1.83
2017-10-06T15:08:55.446Z,2.70
2017-10-06T15:11:22.932Z,2.20
2017-10-06T15:13:50.429Z,2.35
2017-10-06T15:16:17.898Z,2.20
2017-10-06T15:18:46.189Z,2.45
2017-10-06T15:21:13.696Z,1.92
2017-10-06T15:23:41.172Z,2.58
2017-10-06T15:26:08.689Z,2.37
2017-10-06T15:28:36.181Z,2.12
2017-10-06T15:31:03.681Z,2.37
2017-10-06T15:33:31.210Z,2.65
2017-10-06T15:35:58.727Z,2.30
2017-10-06T15:38:26.217Z,2.55
2017-10-06T15:40:53.744Z,2.47
2017-10-06T15:43:21.239Z,3.03
2017-10-06T15:45:48.726Z,3.12
2017-10-06T15:48:17.017Z,2.42
2017-10-06T15:50:44.541Z,2.65
2017-10-06T15:53:12.079Z,3.85
2017-10-06T15:55:39.548Z,3.50
2017-10-06T15:58:07.048Z,3.70
2017-10-06T16:00:35.329Z,3.00
2017-10-06T16:03:02.812Z,2.40
2017-10-06T16:05:30.301Z,2.40
2017-10-06T16:07:57.780Z,3.60
2017-10-06T16:10:26.062Z,1.85
2017-10-06T16:12:54.337Z,2.53
2017-10-06T16:15:22.569Z,2.40
2017-10-06T16:17:50.080Z,1.95
2017-10-06T16:20:18.336Z,2.60
2017-10-06T16:22:45.838Z,2.90
2017-10-06T16:25:13.321Z,3.33
2017-10-06T16:27:40.852Z,2.65
2017-10-06T16:30:08.333Z,2.95
2017-10-06T16:32:35.813Z,2.00
2017-10-06T16:35:03.308Z,2.80
2017-10-06T16:37:31.553Z,3.55
2017-10-06T16:39:59.049Z,4.25
2017-10-06T16:42:27.292Z,4.45
2017-10-06T16:44:54.793Z,5.15
2017-10-06T16:47:22.266Z,2.95
2017-10-06T16:49:49.752Z,2.70
2017-10-06T16:52:17.257Z,3.25
2017-10-06T16:54:45.727Z,3.25
2017-10-06T16:57:13.985Z,3.10
2017-10-06T16:59:41.580Z,3.00
2017-10-06T17:02:09.876Z,3.25
2017-10-06T17:04:37.347Z,3.72
2017-10-06T17:07:04.824Z,2.45
2017-10-06T17:09:32.312Z,3.15
2017-10-06T17:11:59.801Z,3.05
2017-10-06T17:14:27.298Z,3.20
2017-10-06T17:16:54.773Z,3.60
2017-10-06T17:19:22.283Z,3.72
2017-10-06T17:21:49.765Z,3.08
2017-10-06T17:24:17.224Z,2.90
2017-10-06T17:26:44.739Z,3.62
2017-10-06T17:29:12.991Z,4.03
2017-10-06T17:31:40.517Z,4.50
2017-10-06T17:34:07.990Z,3.97
2017-10-06T17:36:35.489Z,5.22
2017-10-06T17:39:03.725Z,4.93
2017-10-06T17:41:31.231Z,5.35
2017-10-06T17:43:59.481Z,4.82
2017-10-06T17:46:27.009Z,5.18
2017-10-06T17:48:54.495Z,4.35
2017-10-06T17:51:21.999Z,5.03
2017-10-06T17:53:49.492Z,5.18
2017-10-06T17:56:16.975Z,5.87
2017-10-06T17:58:44.480Z,5.80
2017-10-06T18:01:12.013Z,5.80
2017-10-06T18:03:40.290Z,7.47
2017-10-06T18:06:08.528Z,5.97
2017-10-06T18:08:36.039Z,6.15
2017-10-06T18:11:03.559Z,6.45
2017-10-06T18:13:31.105Z,5.93
2017-10-06T18:15:58.613Z,6.75
2017-10-06T18:18:26.879Z,7.40
2017-10-06T18:20:55.150Z,8.63
2017-10-06T18:23:23.388Z,7.50
2017-10-06T18:25:50.878Z,6.35
2017-10-06T18:28:18.390Z,5.60
2017-10-06T18:30:45.888Z,5.30
2017-10-06T18:33:14.207Z,5.68
2017-10-06T18:35:41.691Z,4.80
2017-10-06T18:38:09.553Z,5.90
2017-10-06T18:40:37.039Z,9.13
2017-10-06T18:43:05.338Z,5.60
2017-10-06T18:45:33.869Z,6.15
2017-10-06T18:48:01.859Z,5.20
2017-10-06T18:50:29.634Z,5.43
2017-10-06T18:52:58.288Z,5.10
2017-10-06T18:55:26.260Z,5.82
2017-10-06T18:57:54.132Z,5.57
2017-10-06T19:00:22.406Z,6.60
2017-10-06T19:02:50.780Z,4.60
2017-10-06T19:05:20.189Z,4.62
2017-10-06T19:07:48.149Z,4.53
2017-10-06T19:10:16.130Z,5.07
2017-10-06T19:12:43.986Z,6.40
2017-10-06T19:15:11.869Z,5.20
2017-10-06T19:17:40.540Z,5.65
2017-10-06T19:20:08.409Z,6.00
2017-10-06T19:22:36.380Z,6.43
2017-10-06T19:25:04.462Z,6.75
2017-10-06T19:27:32.422Z,7.65
2017-10-06T19:30:00.397Z,5.22
2017-10-06T19:32:28.370Z,5.50
2017-10-06T19:34:57.150Z,5.70
2017-10-06T19:37:25.637Z,5.85
2017-10-06T19:39:54.523Z,5.85
2017-10-06T19:42:22.400Z,6.00
2017-10-06T19:44:50.891Z,5.53
2017-10-06T19:47:19.667Z,5.25
2017-10-06T19:49:47.630Z,5.43
2017-10-06T19:52:16.528Z,5.75
2017-10-06T19:54:45.004Z,5.65
2017-10-06T19:57:13.799Z,5.10
2017-10-06T19:59:41.665Z,5.50
2017-10-06T20:02:10.141Z,5.28
2017-10-06T20:04:38.018Z,4.40
2017-10-06T20:07:05.896Z,5.53
2017-10-06T20:09:33.744Z,5.00
2017-10-06T20:12:02.329Z,5.57
2017-10-06T20:14:30.010Z,5.55
2017-10-06T20:16:57.711Z,4.78
2017-10-06T20:19:26.068Z,4.78
2017-10-06T20:21:53.597Z,4.53
2017-10-06T20:24:21.110Z,5.20
2017-10-06T20:26:48.613Z,5.15
2017-10-06T20:29:16.079Z,4.95
2017-10-06T20:31:45.232Z,5.10
2017-10-06T20:34:13.463Z,4.60
2017-10-06T20:36:41.055Z,5.07
2017-10-06T20:39:08.561Z,4.78
2017-10-06T20:41:36.101Z,5.05
2017-10-06T20:44:04.358Z,5.68
2017-10-06T20:46:31.819Z,5.05
2017-10-06T20:49:00.128Z,5.97
2017-10-06T20:51:27.709Z,4.70
2017-10-06T20:53:56.163Z,5.12
2017-10-06T20:56:23.692Z,5.53
2017-10-06T20:58:51.199Z,6.00
2017-10-06T21:01:18.664Z,5.10
2017-10-06T21:03:46.180Z,5.62
2017-10-06T21:06:14.414Z,5.15
2017-10-06T21:08:41.947Z,4.43
2017-10-06T21:11:09.420Z,4.90
2017-10-06T21:13:36.940Z,5.50
2017-10-06T21:16:05.184Z,5.10
2017-10-06T21:18:32.684Z,5.30
2017-10-06T21:21:00.162Z,5.30
2017-10-06T21:23:27.621Z,5.62
2017-10-06T21:25:55.131Z,5.55
2017-10-06T21:28:22.625Z,5.70
2017-10-06T21:30:50.157Z,5.43
2017-10-06T21:33:17.647Z,5.12
2017-10-06T21:35:45.119Z,5.15
2017-10-06T21:38:12.637Z,5.32
2017-10-06T21:40:40.871Z,5.50
2017-10-06T21:43:08.391Z,5.18
2017-10-06T21:45:35.876Z,5.70
2017-10-06T21:48:03.397Z,5.90
2017-10-06T21:50:31.664Z,5.82
2017-10-06T21:52:59.900Z,4.97
2017-10-06T21:55:27.380Z,6.35
2017-10-06T21:57:56.463Z,5.20
2017-10-06T22:00:23.985Z,5.45
2017-10-06T22:02:51.452Z,6.47
2017-10-06T22:05:18.959Z,5.55
2017-10-06T22:07:46.428Z,6.10
2017-10-06T22:10:14.696Z,5.20
2017-10-06T22:12:42.177Z,5.60
2017-10-06T22:15:09.660Z,5.80
2017-10-06T22:17:37.164Z,4.93
2017-10-06T22:20:04.636Z,4.65
2017-10-06T22:22:32.129Z,5.05
2017-10-06T22:24:59.628Z,4.87
2017-10-06T22:27:27.137Z,4.80
2017-10-06T22:29:57.486Z,4.32
2017-10-06T22:32:24.980Z,5.28
